Time;durP1;ratioP1;P1;durP2;ratioP2;P2;SDS_P1;SDS_P2;PMS_P1;PMS_P2;Temp;Humidity;BMP_temperature;BMP_pressure;BME280_temperature;BME280_humidity;BME280_pressure;Samples;Min_cycle;Max_cycle;Signal;HPM_P1;HPM_P2
2021/12/19 00:02:47;;;;;;;10.17;6.07;;;;;;;4.92;100.00;100817.19;10580508;28;20244;-65
2021/12/19 00:13:13;;;;;;;9.47;5.83;;;;;;;5.11;100.00;100796.13;10580684;28;20222;-65
2021/12/19 00:18:18;;;;;;;10.47;5.57;;;;;;;4.90;100.00;100790.59;10580424;28;20223;-64
2021/12/19 00:23:22;;;;;;;9.97;5.73;;;;;;;4.85;100.00;100787.06;10580590;28;20215;-66
2021/12/19 00:28:26;;;;;;;11.33;5.20;;;;;;;4.79;100.00;100766.34;10582381;28;20656;-67
2021/12/19 00:33:29;;;;;;;10.63;4.77;;;;;;;4.83;100.00;100742.44;10588052;28;20229;-66
2021/12/19 00:38:36;;;;;;;8.07;5.37;;;;;;;4.78;100.00;100723.50;10588371;27;20223;-64
2021/12/19 00:43:46;;;;;;;10.80;5.93;;;;;;;4.72;100.00;100725.13;10587825;28;20648;-64
2021/12/19 00:48:50;;;;;;;8.93;5.03;;;;;;;4.80;100.00;100708.97;10567848;28;20221;-67
2021/12/19 00:53:58;;;;;;;9.10;5.33;;;;;;;4.68;100.00;100696.72;10545811;28;20678;-68
2021/12/19 00:59:02;;;;;;;10.87;4.83;;;;;;;4.71;100.00;100702.78;10547814;28;20234;-68
2021/12/19 01:04:10;;;;;;;9.57;4.87;;;;;;;4.68;100.00;100700.19;10547679;28;20830;-69
2021/12/19 01:09:15;;;;;;;9.73;4.63;;;;;;;4.77;100.00;100680.59;10547803;28;20227;-68
2021/12/19 01:14:19;;;;;;;6.57;3.40;;;;;;;4.64;100.00;100667.53;10547545;28;20314;-68
2021/12/19 01:19:22;;;;;;;6.60;3.47;;;;;;;4.65;100.00;100653.84;10547679;28;20678;-64
2021/12/19 01:24:27;;;;;;;7.17;3.17;;;;;;;4.54;100.00;100629.66;10546598;28;20230;-65
2021/12/19 01:29:30;;;;;;;5.80;2.60;;;;;;;4.57;100.00;100626.28;10546916;28;20552;-67
2021/12/19 01:34:34;;;;;;;9.83;4.60;;;;;;;4.61;100.00;100630.63;10546789;28;20225;-70
2021/12/19 01:39:38;;;;;;;7.93;3.60;;;;;;;4.54;100.00;100624.50;10545428;28;20551;-66
2021/12/19 01:44:44;;;;;;;6.27;3.73;;;;;;;4.40;100.00;100605.41;10546289;28;20285;-64
2021/12/19 01:49:47;;;;;;;6.27;2.83;;;;;;;4.48;100.00;100601.28;10545918;28;20227;-68
2021/12/19 01:54:53;;;;;;;6.00;3.00;;;;;;;4.50;100.00;100583.31;10545644;28;20571;-64
2021/12/19 01:59:56;;;;;;;6.40;3.23;;;;;;;4.43;100.00;100582.38;10545186;28;20246;-63
2021/12/19 02:05:00;;;;;;;15.07;8.83;;;;;;;4.49;100.00;100550.75;10545006;28;20220;-72
2021/12/19 02:10:08;;;;;;;5.87;3.20;;;;;;;4.48;100.00;100511.34;10545138;28;20226;-68
2021/12/19 02:15:16;;;;;;;6.90;3.57;;;;;;;4.38;100.00;100513.75;10545600;28;20226;-65
2021/12/19 02:20:22;;;;;;;33.30;14.93;;;;;;;4.32;100.00;100505.91;10544806;28;20215;-65
2021/12/19 02:25:25;;;;;;;7.50;3.03;;;;;;;4.51;100.00;100511.41;10544529;28;20250;-64
2021/12/19 02:30:29;;;;;;;5.97;3.13;;;;;;;4.47;100.00;100507.03;10544331;28;20227;-68
2021/12/19 02:35:35;;;;;;;5.77;2.70;;;;;;;4.46;100.00;100479.63;10544309;28;20208;-65
2021/12/19 02:51:23;;;;;;;6.20;2.90;;;;;;;4.37;100.00;100465.75;10543477;28;20306;-66
2021/12/19 02:56:26;;;;;;;5.77;2.73;;;;;;;4.45;100.00;100459.06;10543208;28;20306;-70
2021/12/19 03:01:30;;;;;;;5.50;2.80;;;;;;;4.43;100.00;100446.19;10543722;28;20227;-69
2021/12/19 03:06:35;;;;;;;4.80;2.50;;;;;;;4.52;100.00;100430.03;10543133;28;20310;-66
2021/12/19 03:22:30;;;;;;;5.70;2.60;;;;;;;4.60;100.00;100411.31;10542757;28;20229;-68
2021/12/19 03:27:33;;;;;;;5.80;2.50;;;;;;;4.73;100.00;100402.06;10542830;28;20247;-68
2021/12/19 03:32:36;;;;;;;5.53;2.50;;;;;;;4.65;100.00;100380.53;10542529;28;20556;-65
2021/12/19 03:37:42;;;;;;;5.20;2.30;;;;;;;4.63;100.00;100362.53;10542182;28;20225;-67
2021/12/19 03:42:47;;;;;;;3.90;1.90;;;;;;;4.62;100.00;100360.78;10542332;28;20664;-65
2021/12/19 03:47:52;;;;;;;4.70;2.40;;;;;;;4.57;100.00;100349.56;10541775;28;20209;-65
2021/12/19 03:52:57;;;;;;;8.30;3.70;;;;;;;4.65;100.00;100362.53;10542162;28;20220;-68
2021/12/19 03:58:02;;;;;;;5.97;2.20;;;;;;;4.68;100.00;100339.44;10541784;28;20225;-67
2021/12/19 04:03:09;;;;;;;5.10;2.30;;;;;;;4.60;100.00;100323.94;10543246;28;20273;-66
2021/12/19 04:08:14;;;;;;;3.50;1.50;;;;;;;4.73;100.00;100317.22;10549970;28;20595;-64
2021/12/19 04:13:19;;;;;;;5.20;2.40;;;;;;;4.79;100.00;100296.75;10549857;28;20648;-65
2021/12/19 04:18:23;;;;;;;4.80;2.50;;;;;;;4.94;100.00;100283.19;10549215;28;20230;-64
2021/12/19 04:23:30;;;;;;;4.70;2.03;;;;;;;4.89;100.00;100267.72;10549078;28;20215;-64
2021/12/19 04:28:34;;;;;;;5.37;2.40;;;;;;;4.89;100.00;100265.16;10549350;28;20249;-67
2021/12/19 04:33:39;;;;;;;3.80;1.70;;;;;;;4.88;100.00;100245.44;10549224;28;20215;-68
2021/12/19 04:39:18;;;;;;;6.53;3.13;;;;;;;4.90;100.00;100214.59;10549157;28;20219;-66
2021/12/19 04:55:36;;;;;;;5.37;2.50;;;;;;;4.99;100.00;100207.81;10194929;28;9999867;-67
2021/12/19 05:00:48;;;;;;;5.40;2.40;;;;;;;5.16;100.00;100213.16;10547943;28;20231;-64
2021/12/19 05:06:00;;;;;;;6.77;2.60;;;;;;;5.12;100.00;100201.97;10547644;28;20302;-68
2021/12/19 05:16:26;;;;;;;5.67;2.87;;;;;;;5.26;100.00;100213.25;10543194;28;20291;-68
2021/12/19 05:21:29;;;;;;;7.17;2.70;;;;;;;5.36;100.00;100222.75;10544332;28;20219;-67
2021/12/19 05:26:34;;;;;;;8.53;4.30;;;;;;;5.42;100.00;100220.22;10543674;28;20212;-66
2021/12/19 05:31:37;;;;;;;9.67;4.67;;;;;;;5.50;100.00;100212.56;10544364;28;20233;-67
2021/12/19 05:47:24;;;;;;;11.03;4.87;;;;;;;5.63;100.00;100191.22;10543154;28;20190;-68
2021/12/19 05:52:28;;;;;;;9.00;4.80;;;;;;;5.68;100.00;100194.69;10555077;28;20689;-69
2021/12/19 05:57:33;;;;;;;9.90;4.90;;;;;;;5.63;100.00;100165.47;10584822;28;20259;-68
2021/12/19 06:02:36;;;;;;;8.77;4.70;;;;;;;5.68;100.00;100161.22;10584631;28;20321;-65
2021/12/19 06:07:40;;;;;;;8.10;4.17;;;;;;;5.68;100.00;100169.81;10584654;28;20248;-67
2021/12/19 06:12:45;;;;;;;9.43;4.60;;;;;;;5.62;100.00;100146.63;10584338;28;20222;-68
2021/12/19 06:17:48;;;;;;;11.60;5.33;;;;;;;5.70;100.00;100146.63;10583978;28;20247;-64
2021/12/19 06:22:53;;;;;;;12.97;4.20;;;;;;;5.73;100.00;100133.78;10583848;28;20210;-60
2021/12/19 06:27:57;;;;;;;12.60;4.40;;;;;;;5.80;100.00;100120.94;10583006;28;20198;-60
2021/12/19 06:33:01;;;;;;;12.30;4.03;;;;;;;6.04;100.00;100124.53;10583542;28;20267;-58
2021/12/19 06:38:06;;;;;;;11.43;3.57;;;;;;;5.97;100.00;100110.75;10583156;28;20302;-58
2021/12/19 06:43:11;;;;;;;11.63;3.47;;;;;;;5.93;100.00;100103.88;10583173;28;20556;-60
2021/12/19 06:48:14;;;;;;;7.77;3.17;;;;;;;5.99;100.00;100101.31;10583212;28;20214;-70
2021/12/19 06:53:17;;;;;;;7.07;2.73;;;;;;;6.08;100.00;100096.22;10563139;28;20389;-66
2021/12/19 06:58:22;;;;;;;9.73;3.37;;;;;;;6.08;100.00;100085.91;10540480;28;20219;-68
2021/12/19 07:03:25;;;;;;;6.90;2.43;;;;;;;6.12;100.00;100069.63;10540103;28;20911;-69
2021/12/19 07:08:29;;;;;;;8.20;2.50;;;;;;;6.15;100.00;100073.91;10539994;28;20670;-65
2021/12/19 07:13:34;;;;;;;8.87;2.73;;;;;;;6.07;100.00;100086.78;10540112;28;20229;-65
2021/12/19 07:18:39;;;;;;;5.63;2.33;;;;;;;6.10;100.00;100091.06;10539921;28;20265;-69
2021/12/19 07:23:42;;;;;;;10.07;3.70;;;;;;;6.29;100.00;100088.56;10539707;28;20680;-67
2021/12/19 07:28:48;;;;;;;7.57;2.27;;;;;;;6.12;100.00;100086.78;10539219;28;20212;-67
2021/12/19 07:33:51;;;;;;;7.07;2.43;;;;;;;6.11;100.00;100073.03;10539309;28;20238;-62
2021/12/19 07:39:00;;;;;;;6.20;2.47;;;;;;;6.07;100.00;100081.63;10538666;28;20298;-66
2021/12/19 07:44:07;;;;;;;7.03;2.50;;;;;;;6.01;100.00;100086.75;10538903;28;20268;-65
2021/12/19 07:49:10;;;;;;;6.97;2.40;;;;;;;6.09;100.00;100084.19;10539575;28;20235;-69
2021/12/19 07:54:14;;;;;;;6.37;2.93;;;;;;;6.08;100.00;100075.59;10566164;28;20237;-68
2021/12/19 07:59:18;;;;;;;8.80;2.77;;;;;;;6.02;100.00;100079.88;10580645;28;20219;-67
2021/12/19 08:04:21;;;;;;;12.07;4.03;;;;;;;6.06;100.00;100079.03;10580740;28;20678;-65
2021/12/19 08:09:36;;;;;;;9.47;3.03;;;;;;;6.06;100.00;100063.59;10580602;28;20218;-66
2021/12/19 08:14:41;;;;;;;7.80;2.93;;;;;;;6.07;100.00;100073.03;10580967;28;20594;-66
2021/12/19 08:19:44;;;;;;;8.63;3.80;;;;;;;6.19;100.00;100070.50;10580360;28;20215;-69
2021/12/19 08:24:49;;;;;;;7.50;3.23;;;;;;;6.22;100.00;100049.88;10580145;28;20686;-67
2021/12/19 08:29:55;;;;;;;9.07;3.30;;;;;;;6.18;100.00;100041.28;10580448;28;20622;-64
2021/12/19 08:34:58;;;;;;;9.97;3.20;;;;;;;6.24;100.00;100046.47;10580148;28;20660;-68
2021/12/19 08:40:02;;;;;;;6.73;2.53;;;;;;;6.28;100.00;100048.16;10206426;28;10000035;-68
2021/12/19 08:45:09;;;;;;;12.17;2.90;;;;;;;6.39;100.00;100040.44;10541212;28;20234;-63
2021/12/19 08:50:12;;;;;;;8.80;2.90;;;;;;;6.41;100.00;100043.91;10543843;28;20224;-63
2021/12/19 08:55:16;;;;;;;9.70;2.80;;;;;;;6.38;100.00;100055.09;10548419;28;20219;-65
2021/12/19 09:00:22;;;;;;;6.83;2.30;;;;;;;6.42;100.00;100063.69;10547864;28;20249;-65
2021/12/19 09:05:28;;;;;;;8.70;3.77;;;;;;;6.39;100.00;100063.66;10548844;28;20238;-66
2021/12/19 09:10:31;;;;;;;6.57;2.20;;;;;;;6.44;100.00;100074.81;10547509;28;20223;-67
2021/12/19 09:15:36;;;;;;;8.20;2.23;;;;;;;6.46;100.00;100065.38;10547340;28;20220;-64
2021/12/19 09:20:40;;;;;;;7.13;2.10;;;;;;;6.47;100.00;100064.53;10546487;28;20672;-69
2021/12/19 09:25:44;;;;;;;6.57;2.53;;;;;;;6.48;100.00;100069.69;10546389;28;20219;-71
2021/12/19 09:30:48;;;;;;;7.67;2.73;;;;;;;6.48;100.00;100051.66;10546336;28;20303;-69
2021/12/19 09:35:52;;;;;;;5.83;2.23;;;;;;;6.58;100.00;100031.88;10545381;28;20208;-66
2021/12/19 09:41:00;;;;;;;9.37;1.83;;;;;;;6.53;100.00;100020.72;10571168;28;20226;-66
2021/12/19 09:46:04;;;;;;;5.17;2.13;;;;;;;6.50;100.00;100016.44;10585369;28;20223;-70
2021/12/19 09:51:10;;;;;;;7.13;2.37;;;;;;;6.62;100.00;100002.69;10585322;28;20218;-66
2021/12/19 09:56:14;;;;;;;6.60;2.30;;;;;;;6.76;100.00;99977.75;10585035;28;20214;-68
2021/12/19 10:01:18;;;;;;;7.53;2.50;;;;;;;6.85;100.00;99963.09;10555381;28;20230;-66
2021/12/19 10:06:23;;;;;;;12.03;2.53;;;;;;;6.96;100.00;99991.47;10542360;28;20219;-67
2021/12/19 10:11:47;;;;;;;8.03;2.20;;;;;;;6.90;100.00;99981.16;10519567;28;20307;-69
2021/12/19 10:16:52;;;;;;;7.60;1.80;;;;;;;6.92;100.00;99967.38;10500194;28;20220;-67
2021/12/19 10:21:56;;;;;;;5.73;1.77;;;;;;;6.81;100.00;99930.47;10500394;28;20220;-69
2021/12/19 10:26:59;;;;;;;7.70;2.20;;;;;;;6.84;100.00;99940.78;10499592;28;20553;-71
2021/12/19 10:32:05;;;;;;;11.73;2.07;;;;;;;6.93;100.00;99916.66;10499481;28;20247;-67
2021/12/19 10:37:09;;;;;;;6.37;1.93;;;;;;;6.93;100.00;99930.44;10499053;28;20216;-68
2021/12/19 10:42:12;;;;;;;4.23;1.70;;;;;;;7.03;100.00;99918.34;10498849;28;20281;-68
2021/12/19 10:47:25;;;;;;;5.57;1.70;;;;;;;6.98;100.00;99905.47;10550765;28;20313;-68
2021/12/19 10:52:34;;;;;;;7.43;1.93;;;;;;;6.92;100.00;99920.09;10582494;28;20223;-67
2021/12/19 10:57:41;;;;;;;5.93;2.00;;;;;;;6.93;100.00;99912.38;10582579;28;20257;-67
2021/12/19 11:02:45;;;;;;;6.53;2.00;;;;;;;6.92;100.00;99908.06;10582767;28;20226;-67
2021/12/19 11:08:00;;;;;;;13.57;2.07;;;;;;;6.94;100.00;99896.03;10582267;28;20215;-67
2021/12/19 11:13:08;;;;;;;7.57;2.37;;;;;;;6.97;100.00;99885.69;10582235;28;20238;-65
2021/12/19 11:18:13;;;;;;;7.47;2.23;;;;;;;7.00;100.00;99884.84;10581747;28;20227;-68
2021/12/19 11:23:17;;;;;;;8.57;2.20;;;;;;;7.03;100.00;99877.94;10581630;28;20342;-67
2021/12/19 11:28:21;;;;;;;10.87;2.17;;;;;;;7.06;100.00;99879.63;10581769;28;20218;-64
2021/12/19 11:33:39;;;;;;;8.60;1.90;;;;;;;7.09;100.00;99877.06;10581271;28;20223;-67
2021/12/19 11:38:46;;;;;;;9.03;2.60;;;;;;;7.02;100.00;99878.78;10571759;28;20694;-66
2021/12/19 11:43:54;;;;;;;9.37;2.70;;;;;;;7.09;100.00;99874.50;10539042;28;20219;-69
2021/12/19 11:49:20;;;;;;;9.17;2.37;;;;;;;7.03;100.00;99880.53;10539140;28;20227;-66
2021/12/19 11:54:23;;;;;;;7.90;2.30;;;;;;;7.12;100.00;99873.59;10539003;28;20750;-68
2021/12/19 11:59:39;;;;;;;6.53;2.30;;;;;;;7.00;100.00;99874.50;10537416;28;20285;-67
2021/12/19 12:04:44;;;;;;;8.17;2.80;;;;;;;6.99;100.00;99862.47;10501303;28;20304;-70
2021/12/19 12:09:57;;;;;;;6.23;2.50;;;;;;;7.01;100.00;99855.59;10503011;28;20230;-69
2021/12/19 12:15:07;;;;;;;61.80;29.90;;;;;;;6.99;100.00;99853.00;10501776;28;20562;-69
2021/12/19 12:20:18;;;;;;;8.53;3.00;;;;;;;6.90;100.00;99844.47;10523067;28;20204;-64
2021/12/19 12:25:32;;;;;;;9.43;2.83;;;;;;;6.97;100.00;99844.41;10515912;28;20212;-65
2021/12/19 12:30:40;;;;;;;10.73;3.07;;;;;;;6.87;100.00;99827.25;10523771;28;20222;-66
2021/12/19 12:35:46;;;;;;;13.00;2.73;;;;;;;6.84;100.00;99834.16;10514955;28;20227;-69
2021/12/19 12:40:55;;;;;;;9.43;3.00;;;;;;;6.73;100.00;99815.31;10557916;28;20229;-67
2021/12/19 12:46:07;;;;;;;10.20;2.50;;;;;;;6.53;100.00;99824.81;10550224;28;20224;-71
2021/12/19 12:51:18;;;;;;;10.40;2.93;;;;;;;6.45;100.00;99830.00;10546135;28;20231;-66
2021/12/19 12:56:24;;;;;;;9.53;3.30;;;;;;;6.42;100.00;99822.25;10545104;28;20534;-72
2021/12/19 13:01:30;;;;;;;7.03;2.60;;;;;;;6.36;100.00;99822.28;10544765;28;20571;-67
2021/12/19 13:06:50;;;;;;;13.80;3.20;;;;;;;6.36;100.00;99817.13;10544914;28;20226;-65
2021/12/19 13:12:02;;;;;;;6.63;2.80;;;;;;;6.14;100.00;99799.97;10502654;28;20578;-70
2021/12/19 13:17:08;;;;;;;5.97;1.83;;;;;;;6.01;100.00;99800.84;10502741;28;20212;-70
2021/12/19 13:22:15;;;;;;;19.53;8.07;;;;;;;6.03;100.00;99773.38;10502508;28;20253;-65
2021/12/19 13:27:21;;;;;;;6.57;2.30;;;;;;;5.74;100.00;99746.75;10543100;28;20215;-68
2021/12/19 13:32:29;;;;;;;5.53;2.07;;;;;;;5.72;100.00;99756.19;10506725;28;20215;-67
2021/12/19 13:37:34;;;;;;;7.77;2.27;;;;;;;5.73;100.00;99747.59;10524062;28;20208;-65
2021/12/19 13:42:40;;;;;;;11.33;2.70;;;;;;;5.74;100.00;99747.63;10510875;28;20212;-67
2021/12/19 13:47:43;;;;;;;7.90;2.73;;;;;;;5.73;100.00;99760.47;10536136;28;20302;-66
2021/12/19 13:52:49;;;;;;;6.57;2.37;;;;;;;5.79;100.00;99765.63;10500841;28;20356;-66
2021/12/19 13:58:05;;;;;;;11.97;2.60;;;;;;;5.77;100.00;99768.22;10501100;28;20216;-66
2021/12/19 14:03:09;;;;;;;4.57;1.70;;;;;;;5.92;100.00;99764.78;10500638;28;20677;-69
2021/12/19 14:08:25;;;;;;;6.40;1.80;;;;;;;5.90;100.00;99753.66;10500412;28;20215;-66
2021/12/19 14:13:32;;;;;;;5.17;1.83;;;;;;;5.84;100.00;99748.50;10501024;28;20242;-65
2021/12/19 14:18:43;;;;;;;3.77;1.30;;;;;;;5.87;100.00;99769.09;10500096;28;20220;-65
2021/12/19 14:23:47;;;;;;;6.47;1.40;;;;;;;5.86;100.00;99746.78;10499731;28;20542;-65
2021/12/19 14:28:51;;;;;;;6.33;1.67;;;;;;;5.91;100.00;99760.50;10499620;28;20212;-66
2021/12/19 14:33:55;;;;;;;6.90;2.23;;;;;;;5.94;100.00;99745.03;10499276;28;20228;-68
2021/12/19 14:39:02;;;;;;;5.10;1.33;;;;;;;5.93;100.00;99739.91;10521979;28;20214;-65
2021/12/19 14:44:19;;;;;;;6.53;2.00;;;;;;;5.96;100.00;99750.19;10583107;28;20234;-68
2021/12/19 14:49:22;;;;;;;7.47;2.40;;;;;;;5.94;100.00;99755.34;10582626;28;20298;-65
2021/12/19 14:54:26;;;;;;;8.37;1.70;;;;;;;5.96;100.00;99737.31;10582765;28;20233;-68
2021/12/19 14:59:30;;;;;;;7.47;1.77;;;;;;;5.96;100.00;99740.75;10582240;28;20675;-66
2021/12/19 15:04:33;;;;;;;7.17;2.33;;;;;;;5.94;100.00;99739.91;10582581;28;20685;-69
2021/12/19 15:09:38;;;;;;;6.10;1.73;;;;;;;5.97;100.00;99729.59;10582426;28;20555;-67
2021/12/19 15:14:41;;;;;;;9.60;1.87;;;;;;;5.96;100.00;99719.28;10581975;28;20233;-65
2021/12/19 15:19:44;;;;;;;9.67;2.10;;;;;;;5.90;100.00;99720.19;10581960;28;20214;-66
2021/12/19 15:24:49;;;;;;;6.37;1.90;;;;;;;5.82;100.00;99716.72;10581631;28;20276;-67
2021/12/19 15:29:53;;;;;;;12.43;5.17;;;;;;;5.88;100.00;99719.31;10581386;28;20237;-67
2021/12/19 15:34:56;;;;;;;4.87;1.70;;;;;;;5.83;100.00;99706.44;10581454;28;20237;-67
2021/12/19 15:40:01;;;;;;;6.70;1.80;;;;;;;5.77;100.00;99739.91;10561041;28;20230;-65
2021/12/19 15:45:06;;;;;;;6.47;2.10;;;;;;;5.58;100.00;99743.34;10538941;28;20220;-67
2021/12/19 15:50:10;;;;;;;13.77;5.43;;;;;;;5.60;100.00;99753.63;10540097;28;20219;-66
2021/12/19 15:55:15;;;;;;;8.47;3.00;;;;;;;5.58;100.00;99765.63;10538600;28;20234;-65
2021/12/19 16:00:22;;;;;;;10.37;2.80;;;;;;;5.46;100.00;99783.63;10542421;28;20235;-67
2021/12/19 16:05:26;;;;;;;7.57;2.07;;;;;;;6.31;100.00;99756.13;10547473;28;20237;-72
2021/12/19 16:10:31;;;;;;;9.87;2.23;;;;;;;6.64;100.00;99762.03;10546967;28;20373;-72
2021/12/19 16:15:34;;;;;;;7.33;1.73;;;;;;;6.68;100.00;99755.13;10546775;28;20650;-70
2021/12/19 16:20:38;;;;;;;5.30;2.00;;;;;;;6.64;100.00;99764.59;10546735;28;20298;-72
2021/12/19 16:25:43;;;;;;;7.00;2.07;;;;;;;6.49;100.00;99780.13;10546328;28;20306;-73
2021/12/19 16:30:46;;;;;;;7.07;2.10;;;;;;;6.52;100.00;99793.00;10546427;28;20216;-74
2021/12/19 16:35:50;;;;;;;20.63;8.90;;;;;;;6.59;100.00;99830.78;10545923;28;20223;-70
2021/12/19 16:41:01;;;;;;;4.83;1.50;;;;;;;6.47;100.00;99833.41;10573090;28;20228;-70
2021/12/19 16:46:07;;;;;;;2.90;1.00;;;;;;;6.14;100.00;99850.63;10588228;27;20625;-70
2021/12/19 16:51:11;;;;;;;5.00;0.97;;;;;;;5.69;100.00;99841.16;10587639;28;20567;-73
2021/12/19 16:56:16;;;;;;;4.23;0.60;;;;;;;5.69;100.00;99849.72;10587640;28;20697;-70
2021/12/19 17:01:19;;;;;;;3.10;1.00;;;;;;;5.72;100.00;99843.72;10587464;28;20226;-71
2021/12/19 17:06:23;;;;;;;3.90;1.00;;;;;;;5.75;100.00;99841.16;10587100;28;20222;-72
2021/12/19 17:11:28;;;;;;;4.53;1.67;;;;;;;5.70;100.00;99841.16;10586896;28;20231;-70
2021/12/19 17:16:32;;;;;;;7.57;1.40;;;;;;;5.60;100.00;99847.16;10586609;28;20222;-72
2021/12/19 17:21:36;;;;;;;3.73;0.90;;;;;;;5.63;100.00;99846.28;10586512;28;20275;-74
2021/12/19 17:26:43;;;;;;;3.50;1.27;;;;;;;5.62;100.00;99848.03;10586496;28;20219;-71
2021/12/19 17:31:47;;;;;;;3.50;0.97;;;;;;;5.68;100.00;99848.00;10586182;28;20229;-71
2021/12/19 17:36:51;;;;;;;5.73;1.63;;;;;;;5.70;100.00;99850.59;10584781;27;20341;-72
2021/12/19 17:41:57;;;;;;;7.63;1.73;;;;;;;5.75;100.00;99851.44;10550456;28;20215;-71
2021/12/19 17:47:02;;;;;;;5.33;1.70;;;;;;;5.80;100.00;99845.44;10511348;28;20215;-72
2021/12/19 17:52:07;;;;;;;6.00;1.50;;;;;;;5.89;100.00;99870.38;10528170;28;20245;-72
2021/12/19 17:57:12;;;;;;;4.67;1.43;;;;;;;5.84;100.00;99874.66;10543025;28;20225;-70
2021/12/19 18:02:15;;;;;;;6.10;1.53;;;;;;;5.82;100.00;99873.75;10542255;28;20228;-70
2021/12/19 18:07:19;;;;;;;4.80;1.70;;;;;;;5.88;100.00;99883.25;10542937;28;20302;-72
2021/12/19 18:12:24;;;;;;;7.90;1.83;;;;;;;5.94;100.00;99878.97;10542855;28;20223;-73
2021/12/19 18:17:28;;;;;;;3.67;1.50;;;;;;;5.88;100.00;99878.09;10542072;28;20229;-72
2021/12/19 18:22:31;;;;;;;6.93;2.37;;;;;;;5.83;100.00;99883.25;10541639;28;20211;-71
2021/12/19 18:27:37;;;;;;;5.87;2.00;;;;;;;5.81;100.00;99880.66;10539946;28;20218;-72
2021/12/19 18:32:40;;;;;;;6.83;2.60;;;;;;;5.77;100.00;99890.94;10540876;28;20237;-72
2021/12/19 18:37:44;;;;;;;10.00;2.73;;;;;;;5.69;100.00;99874.63;10542214;28;20226;-72
2021/12/19 18:42:54;;;;;;;9.63;2.60;;;;;;;5.67;100.00;99889.19;10560565;28;20247;-72
2021/12/19 18:48:06;;;;;;;6.83;2.40;;;;;;;5.64;100.00;99881.47;10540019;28;20220;-72
2021/12/19 18:53:24;;;;;;;6.47;2.67;;;;;;;5.61;100.00;99884.03;10541301;28;20318;-72
2021/12/19 18:58:30;;;;;;;7.13;2.27;;;;;;;5.64;100.00;99894.34;10540532;28;20233;-71
2021/12/19 19:08:59;;;;;;;9.27;2.50;;;;;;;5.51;100.00;99890.00;10540464;28;20874;-72
2021/12/19 19:14:05;;;;;;;5.73;1.93;;;;;;;5.46;100.00;99897.72;10539843;28;20694;-71
2021/12/19 19:19:11;;;;;;;8.13;2.07;;;;;;;5.41;100.00;99898.56;10539989;28;20215;-72
2021/12/19 19:24:15;;;;;;;7.10;2.20;;;;;;;5.51;100.00;99901.19;10539695;28;20315;-71
2021/12/19 19:29:21;;;;;;;6.57;1.77;;;;;;;5.58;100.00;99902.03;10539379;28;20243;-70
2021/12/19 19:34:24;;;;;;;7.07;1.80;;;;;;;5.49;100.00;99899.44;10538562;28;20219;-71
2021/12/19 19:39:51;;;;;;;8.43;2.27;;;;;;;5.46;100.00;99900.31;10554743;28;20210;-72
2021/12/19 19:50:19;;;;;;;8.17;3.00;;;;;;;5.60;100.00;99903.78;10581317;28;20229;-73
2021/12/19 19:55:23;;;;;;;8.00;2.00;;;;;;;5.64;100.00;99900.34;10580900;28;20250;-75
2021/12/19 20:00:27;;;;;;;6.30;1.90;;;;;;;5.53;100.00;99916.63;10581216;28;20227;-72
2021/12/19 20:05:31;;;;;;;4.47;1.80;;;;;;;5.57;100.00;99914.03;10581164;28;20301;-75
2021/12/19 20:10:35;;;;;;;6.73;2.13;;;;;;;5.68;100.00;99914.94;10580769;28;20223;-70
2021/12/19 20:15:40;;;;;;;5.67;1.80;;;;;;;5.69;100.00;99932.09;10580886;28;20237;-74
2021/12/19 20:20:48;;;;;;;18.37;7.30;;;;;;;5.70;100.00;99917.53;10580743;28;20301;-73
2021/12/19 20:25:51;;;;;;;5.83;1.83;;;;;;;5.67;100.00;99938.09;10580482;28;20552;-75
2021/12/19 20:30:57;;;;;;;6.60;1.80;;;;;;;5.66;100.00;99941.56;10580778;28;20219;-73
2021/12/19 20:36:01;;;;;;;5.63;1.70;;;;;;;5.75;100.00;99950.16;10580212;28;20222;-71
2021/12/19 20:41:04;;;;;;;6.57;1.97;;;;;;;5.79;100.00;99956.16;10551197;28;20771;-73
2021/12/19 20:46:09;;;;;;;6.90;1.70;;;;;;;5.77;100.00;99958.75;10541665;28;20212;-72
2021/12/19 20:51:13;;;;;;;5.00;1.70;;;;;;;5.80;100.00;99970.75;10545365;28;20639;-73
2021/12/19 20:56:16;;;;;;;6.60;2.13;;;;;;;5.85;100.00;99980.25;10545519;28;20656;-73
2021/12/19 21:01:21;;;;;;;5.87;1.90;;;;;;;5.89;100.00;99975.97;10544893;28;20228;-73
2021/12/19 21:06:25;;;;;;;5.73;1.90;;;;;;;5.86;100.00;99965.66;10544859;28;20704;-73
2021/12/19 21:11:30;;;;;;;5.93;1.50;;;;;;;5.90;100.00;99975.13;10545136;28;20187;-74
2021/12/19 21:21:58;;;;;;;6.23;1.77;;;;;;;5.85;100.00;99984.53;10544725;28;20206;-73
2021/12/19 21:27:03;;;;;;;7.07;2.03;;;;;;;5.84;100.00;99987.97;10544071;28;20650;-72
2021/12/19 21:32:09;;;;;;;7.37;2.10;;;;;;;5.87;100.00;99987.97;10543640;28;20211;-73
2021/12/19 21:42:36;;;;;;;5.70;1.67;;;;;;;5.80;100.00;99986.19;10585235;28;20229;-71
2021/12/19 21:47:42;;;;;;;6.93;2.30;;;;;;;5.77;100.00;99978.47;10585920;27;20243;-74
2021/12/19 21:52:45;;;;;;;6.33;1.50;;;;;;;5.81;100.00;99982.78;10585378;27;20323;-73
2021/12/19 21:57:49;;;;;;;8.43;2.17;;;;;;;5.85;100.00;99984.53;10584272;28;20210;-74
2021/12/19 22:02:54;;;;;;;7.67;2.00;;;;;;;5.73;100.00;99975.03;10543492;28;20690;-75
2021/12/19 22:07:59;;;;;;;7.97;2.13;;;;;;;5.79;100.00;99982.78;10542791;28;20248;-73
2021/12/19 22:13:13;;;;;;;5.77;1.80;;;;;;;5.80;100.00;99981.03;10542729;28;20600;-73
2021/12/19 22:18:18;;;;;;;8.30;1.60;;;;;;;5.84;100.00;99975.97;10542219;28;20325;-71
2021/12/19 22:23:22;;;;;;;6.30;1.93;;;;;;;5.82;100.00;99972.50;10541943;28;20191;-71
2021/12/19 22:28:25;;;;;;;6.50;1.73;;;;;;;5.87;100.00;99964.78;10542046;28;20217;-65
2021/12/19 22:33:30;;;;;;;21.13;11.53;;;;;;;4.17;100.00;99974.94;10541547;28;20202;-68
2021/12/19 22:38:34;;;;;;;6.97;2.23;;;;;;;3.87;100.00;99977.19;10548757;28;20229;-66
2021/12/19 22:43:38;;;;;;;8.73;2.93;;;;;;;3.77;100.00;99992.47;10583569;28;20218;-67
2021/12/19 22:48:42;;;;;;;7.30;2.20;;;;;;;3.64;100.00;99981.22;10583137;28;20201;-69
2021/12/19 22:53:46;;;;;;;9.13;2.23;;;;;;;3.67;100.00;99991.53;10582987;28;20194;-68
2021/12/19 22:58:49;;;;;;;5.13;1.77;;;;;;;3.70;100.00;99980.41;10582726;28;20520;-66
2021/12/19 23:03:54;;;;;;;7.10;1.90;;;;;;;3.64;100.00;99985.50;10582279;28;20219;-69
2021/12/19 23:08:57;;;;;;;6.50;1.73;;;;;;;3.67;100.00;99983.81;10582357;28;20579;-68
2021/12/19 23:14:01;;;;;;;9.13;1.90;;;;;;;3.71;100.00;99985.56;10581983;28;20217;-67
2021/12/19 23:19:07;;;;;;;8.57;2.00;;;;;;;3.71;100.00;99970.16;10582203;28;20233;-67
2021/12/19 23:24:11;;;;;;;5.67;1.73;;;;;;;3.68;100.00;99972.69;10581984;28;20187;-69
2021/12/19 23:29:14;;;;;;;5.40;1.80;;;;;;;3.59;100.00;99975.16;10581508;28;20221;-67
2021/12/19 23:34:18;;;;;;;6.00;1.63;;;;;;;3.61;100.00;99970.06;10581617;28;20621;-68
2021/12/19 23:39:40;;;;;;;6.57;1.73;;;;;;;3.49;100.00;99978.47;10566816;28;20223;-67
2021/12/19 23:50:07;;;;;;;8.33;2.13;;;;;;;3.62;100.00;99972.66;10539193;28;20287;-65
2021/12/19 23:55:12;;;;;;;5.67;1.50;;;;;;;3.63;100.00;99976.06;10539253;28;20567;-63
